createdAt,value
2018-09-15T00:02:09.917Z,13.40
2018-09-15T00:04:37.628Z,13.30
2018-09-15T00:07:05.373Z,13.30
2018-09-15T00:09:33.051Z,13.30
2018-09-15T00:12:00.672Z,13.30
2018-09-15T00:14:28.322Z,13.30
2018-09-15T00:16:55.954Z,13.30
2018-09-15T00:19:23.594Z,13.30
2018-09-15T00:21:51.274Z,13.30
2018-09-15T00:24:18.923Z,13.30
2018-09-15T00:26:46.573Z,13.30
2018-09-15T00:29:14.178Z,13.30
2018-09-15T00:31:41.853Z,13.30
2018-09-15T00:34:09.502Z,13.20
2018-09-15T00:36:37.127Z,13.10
2018-09-15T00:39:08.023Z,13.10
2018-09-15T00:41:35.829Z,13.20
2018-09-15T00:44:03.441Z,13.10
2018-09-15T00:46:31.118Z,13.10
2018-09-15T00:48:59.396Z,13.10
2018-09-15T00:51:27.612Z,13.10
2018-09-15T00:56:23.186Z,13.20
2018-09-15T01:01:18.422Z,13.20
2018-09-15T01:03:46.140Z,13.20
2018-09-15T01:06:14.064Z,13.30
2018-09-15T01:08:41.995Z,13.30
2018-09-15T01:11:09.902Z,13.40
2018-09-15T01:13:37.980Z,13.70
2018-09-15T01:16:05.913Z,13.80
2018-09-15T01:18:33.747Z,14.00
2018-09-15T01:21:01.755Z,14.20
2018-09-15T01:23:29.757Z,14.50
2018-09-15T01:28:25.411Z,14.70
2018-09-15T01:30:53.075Z,14.70
2018-09-15T01:38:16.207Z,14.80
2018-09-15T01:40:43.919Z,14.90
2018-09-15T01:43:11.607Z,14.80
2018-09-15T01:45:39.333Z,14.90
2018-09-15T01:48:06.973Z,14.80
2018-09-15T01:50:34.657Z,14.90
2018-09-15T01:53:02.393Z,14.90
2018-09-15T01:55:30.027Z,14.90
2018-09-15T01:57:57.656Z,15.00
2018-09-15T02:00:25.296Z,14.90
2018-09-15T02:02:52.973Z,15.00
2018-09-15T02:05:20.656Z,15.00
2018-09-15T02:07:48.267Z,14.90
2018-09-15T02:10:15.893Z,14.40
2018-09-15T02:12:43.524Z,14.90
2018-09-15T02:15:11.232Z,14.90
2018-09-15T02:17:38.920Z,14.90
2018-09-15T02:20:06.612Z,14.90
2018-09-15T02:22:34.260Z,14.80
2018-09-15T02:25:01.894Z,14.70
2018-09-15T02:27:29.715Z,14.60
2018-09-15T02:29:57.352Z,14.50
2018-09-15T02:32:24.986Z,14.50
2018-09-15T02:34:52.667Z,14.40
2018-09-15T02:39:47.940Z,14.30
2018-09-15T02:42:15.575Z,14.30
2018-09-15T02:44:43.273Z,14.30
2018-09-15T02:47:10.911Z,14.30
2018-09-15T02:52:06.277Z,14.20
2018-09-15T02:54:34.011Z,14.20
2018-09-15T02:57:01.671Z,14.30
2018-09-15T02:59:29.350Z,14.30
2018-09-15T03:01:57.049Z,14.30
2018-09-15T03:04:24.984Z,14.20
2018-09-15T03:06:52.609Z,14.20
2018-09-15T03:09:20.235Z,14.20
2018-09-15T03:11:47.888Z,14.10
2018-09-15T03:14:15.524Z,14.20
2018-09-15T03:16:43.241Z,14.10
2018-09-15T03:19:10.869Z,14.20
2018-09-15T03:26:33.588Z,14.20
2018-09-15T03:29:02.986Z,14.20
2018-09-15T03:31:30.735Z,14.10
2018-09-15T03:33:58.410Z,14.10
2018-09-15T03:36:26.130Z,14.20
2018-09-15T03:38:53.760Z,14.10
2018-09-15T03:41:21.416Z,14.10
2018-09-15T03:43:49.132Z,14.10
2018-09-15T03:46:16.832Z,14.00
2018-09-15T03:51:12.094Z,14.00
2018-09-15T03:53:39.734Z,14.00
2018-09-15T03:56:07.395Z,14.00
2018-09-15T03:58:35.032Z,13.90
2018-09-15T04:03:30.204Z,13.90
2018-09-15T04:05:57.864Z,13.80
2018-09-15T04:08:25.512Z,13.80
2018-09-15T04:10:54.901Z,14.00
2018-09-15T04:13:22.511Z,13.90
2018-09-15T04:15:50.977Z,13.90
2018-09-15T04:18:18.576Z,13.70
2018-09-15T04:20:47.540Z,13.80
2018-09-15T04:23:15.772Z,13.80
2018-09-15T04:25:44.111Z,13.80
2018-09-15T04:30:39.790Z,13.70
2018-09-15T04:35:35.059Z,13.70
2018-09-15T04:38:02.729Z,13.70
2018-09-15T04:40:30.340Z,13.70
2018-09-15T04:42:57.989Z,13.60
2018-09-15T04:45:25.665Z,13.60
2018-09-15T04:47:53.292Z,13.70
2018-09-15T04:50:20.912Z,13.70
2018-09-15T04:52:50.426Z,13.70
2018-09-15T04:57:45.745Z,13.60
2018-09-15T05:00:13.351Z,13.50
2018-09-15T05:02:40.983Z,13.50
2018-09-15T05:05:08.713Z,13.60
2018-09-15T05:07:36.441Z,13.50
2018-09-15T05:10:04.157Z,13.50
2018-09-15T05:12:32.045Z,13.50
2018-09-15T05:14:59.598Z,13.40
2018-09-15T05:17:27.248Z,13.50
2018-09-15T05:19:54.985Z,13.40
2018-09-15T05:22:22.740Z,13.40
2018-09-15T05:24:50.347Z,13.40
2018-09-15T05:27:17.948Z,13.30
2018-09-15T05:29:45.599Z,13.30
2018-09-15T05:32:13.212Z,13.40
2018-09-15T05:34:42.823Z,13.50
2018-09-15T05:37:10.470Z,13.60
2018-09-15T05:39:38.066Z,13.60
2018-09-15T05:42:06.220Z,13.60
2018-09-15T05:44:33.841Z,13.60
2018-09-15T05:47:01.440Z,13.70
2018-09-15T05:49:29.094Z,13.40
2018-09-15T05:51:56.771Z,13.50
2018-09-15T05:54:24.411Z,13.50
2018-09-15T05:59:19.564Z,13.70
2018-09-15T06:01:47.305Z,13.70
2018-09-15T06:04:14.978Z,13.60
2018-09-15T06:06:42.741Z,13.60
2018-09-15T06:09:11.620Z,13.80
2018-09-15T06:11:39.558Z,13.80
2018-09-15T06:14:07.212Z,13.70
2018-09-15T06:19:03.585Z,13.80
2018-09-15T06:21:31.285Z,13.80
2018-09-15T06:23:58.935Z,14.00
2018-09-15T06:26:26.697Z,13.90
2018-09-15T06:28:54.400Z,13.90
2018-09-15T06:31:22.041Z,13.90
2018-09-15T06:33:49.709Z,14.00
2018-09-15T06:36:17.412Z,13.90
2018-09-15T06:38:45.078Z,13.90
2018-09-15T06:41:12.950Z,14.00
2018-09-15T06:43:40.590Z,14.10
2018-09-15T06:46:08.194Z,14.30
2018-09-15T06:48:35.906Z,14.30
2018-09-15T06:51:03.564Z,14.50
2018-09-15T06:53:31.237Z,14.50
2018-09-15T06:55:58.868Z,14.50
2018-09-15T06:58:26.556Z,14.70
2018-09-15T07:00:54.308Z,14.70
2018-09-15T07:03:22.009Z,14.70
2018-09-15T07:05:49.651Z,14.90
2018-09-15T07:08:17.313Z,15.00
2018-09-15T07:10:44.923Z,14.90
2018-09-15T07:13:12.982Z,14.90
2018-09-15T07:15:40.597Z,14.90
2018-09-15T07:18:08.770Z,15.10
2018-09-15T07:20:36.386Z,15.10
2018-09-15T07:23:04.523Z,15.20
2018-09-15T07:25:32.190Z,15.30
2018-09-15T07:27:59.823Z,15.40
2018-09-15T07:30:27.452Z,15.50
2018-09-15T07:32:55.121Z,15.50
2018-09-15T07:35:22.808Z,15.60
2018-09-15T07:37:50.451Z,15.70
2018-09-15T07:40:18.052Z,15.70
2018-09-15T07:42:45.701Z,15.70
2018-09-15T07:45:15.299Z,15.80
2018-09-15T07:47:42.925Z,15.60
2018-09-15T07:50:10.652Z,15.60
2018-09-15T07:52:38.257Z,15.90
2018-09-15T07:55:05.931Z,15.90
2018-09-15T07:57:33.591Z,16.00
2018-09-15T08:00:01.244Z,16.10
2018-09-15T08:02:29.114Z,16.00
2018-09-15T08:04:56.773Z,16.00
2018-09-15T08:07:24.446Z,15.90
2018-09-15T08:09:52.112Z,15.90
2018-09-15T08:14:47.668Z,16.00
2018-09-15T08:17:15.335Z,16.00
2018-09-15T08:19:42.983Z,16.10
2018-09-15T08:22:10.683Z,16.30
2018-09-15T08:24:38.312Z,16.40
2018-09-15T08:27:08.472Z,16.60
2018-09-15T08:29:36.109Z,16.50
2018-09-15T08:32:03.835Z,16.50
2018-09-15T08:36:59.042Z,16.60
2018-09-15T08:39:26.690Z,15.80
2018-09-15T08:41:54.321Z,16.60
2018-09-15T08:44:21.949Z,16.80
2018-09-15T08:46:49.570Z,16.80
2018-09-15T08:49:17.192Z,16.70
2018-09-15T08:51:44.860Z,16.70
2018-09-15T08:54:12.468Z,16.70
2018-09-15T08:56:40.159Z,16.70
2018-09-15T08:59:07.805Z,16.70
2018-09-15T09:01:35.433Z,16.80
2018-09-15T09:04:03.110Z,17.00
2018-09-15T09:06:30.751Z,17.00
2018-09-15T09:08:58.379Z,17.00
2018-09-15T09:13:53.544Z,17.10
2018-09-15T09:16:21.218Z,17.20
2018-09-15T09:18:48.855Z,17.40
2018-09-15T09:21:16.583Z,17.30
2018-09-15T09:23:44.305Z,17.50
2018-09-15T09:26:12.028Z,17.70
2018-09-15T09:28:39.669Z,17.70
2018-09-15T09:31:07.456Z,17.50
2018-09-15T09:33:36.787Z,17.60
2018-09-15T09:36:04.573Z,17.60
2018-09-15T09:40:59.903Z,18.00
2018-09-15T09:43:27.588Z,18.00
2018-09-15T09:45:55.238Z,18.30
2018-09-15T09:50:50.431Z,18.60
2018-09-15T09:53:18.075Z,18.60
2018-09-15T09:55:45.670Z,18.60
2018-09-15T09:58:13.384Z,18.50
2018-09-15T10:00:46.694Z,18.40
2018-09-15T10:08:09.732Z,18.70
2018-09-15T10:10:37.329Z,18.80
2018-09-15T10:13:05.128Z,18.80
2018-09-15T10:15:32.780Z,18.90
2018-09-15T10:20:27.967Z,18.90
2018-09-15T10:22:55.624Z,18.60
2018-09-15T10:25:23.269Z,19.20
2018-09-15T10:27:50.881Z,19.10
2018-09-15T10:30:18.536Z,19.10
2018-09-15T10:32:46.223Z,19.20
2018-09-15T10:37:41.395Z,19.40
2018-09-15T10:40:09.322Z,19.30
2018-09-15T10:42:36.948Z,19.30
2018-09-15T10:45:04.723Z,19.30
2018-09-15T10:47:32.654Z,19.40
2018-09-15T10:50:00.296Z,19.40
2018-09-15T10:52:29.122Z,19.40
2018-09-15T10:54:56.755Z,19.40
2018-09-15T10:57:25.098Z,19.60
2018-09-15T10:59:52.825Z,20.00
2018-09-15T11:02:20.433Z,20.10
2018-09-15T11:04:48.112Z,20.10
2018-09-15T11:07:15.848Z,20.30
2018-09-15T11:09:43.528Z,20.20
2018-09-15T11:12:11.324Z,20.00
2018-09-15T11:14:39.208Z,20.00
2018-09-15T11:17:07.150Z,19.90
2018-09-15T11:19:34.899Z,19.90
2018-09-15T11:22:02.969Z,20.00
2018-09-15T11:24:30.789Z,20.10
2018-09-15T11:26:58.496Z,20.40
2018-09-15T11:29:26.260Z,20.60
2018-09-15T11:31:54.035Z,20.60
2018-09-15T11:34:21.749Z,20.60
2018-09-15T11:36:49.833Z,20.60
2018-09-15T11:39:17.493Z,20.60
2018-09-15T11:41:46.984Z,20.60
2018-09-15T11:44:14.599Z,20.60
2018-09-15T11:46:42.441Z,20.70
2018-09-15T11:51:38.389Z,20.70
2018-09-15T11:54:06.220Z,20.90
2018-09-15T11:56:33.840Z,21.00
2018-09-15T11:59:02.116Z,21.00
2018-09-15T12:01:29.740Z,21.10
2018-09-15T12:03:57.359Z,20.90
2018-09-15T12:06:25.045Z,20.70
2018-09-15T12:08:52.724Z,20.60
2018-09-15T12:11:20.398Z,20.30
2018-09-15T12:13:48.003Z,20.30
2018-09-15T12:16:15.706Z,20.20
2018-09-15T12:18:43.401Z,20.10
2018-09-15T12:21:11.074Z,19.90
2018-09-15T12:23:38.760Z,19.70
2018-09-15T12:26:06.545Z,19.60
2018-09-15T12:31:01.806Z,19.30
2018-09-15T12:33:29.850Z,19.20
2018-09-15T12:38:25.022Z,19.00
2018-09-15T12:40:52.675Z,19.10
2018-09-15T12:43:20.524Z,18.70
2018-09-15T12:45:48.255Z,18.90
2018-09-15T12:48:15.912Z,19.10
2018-09-15T12:50:43.668Z,19.10
2018-09-15T12:53:11.377Z,19.10
2018-09-15T12:55:39.041Z,19.30
2018-09-15T12:58:06.822Z,20.10
2018-09-15T13:00:34.524Z,21.20
2018-09-15T13:03:02.172Z,22.30
2018-09-15T13:05:31.938Z,22.50
2018-09-15T13:10:27.206Z,23.00
2018-09-15T13:12:56.044Z,23.00
2018-09-15T13:15:23.880Z,22.60
2018-09-15T13:17:51.494Z,22.60
2018-09-15T13:20:19.444Z,22.20
2018-09-15T13:22:47.480Z,21.90
2018-09-15T13:25:15.303Z,21.50
2018-09-15T13:27:43.042Z,21.10
2018-09-15T13:37:33.984Z,20.60
2018-09-15T13:42:29.738Z,20.20
2018-09-15T13:47:26.726Z,20.00
2018-09-15T13:49:54.432Z,19.70
2018-09-15T13:52:22.096Z,19.80
2018-09-15T13:54:49.837Z,19.80
2018-09-15T13:57:17.558Z,19.80
2018-09-15T13:59:45.219Z,19.80
2018-09-15T14:02:12.854Z,19.70
2018-09-15T14:07:08.112Z,19.90
2018-09-15T14:12:03.397Z,20.00
2018-09-15T14:14:31.027Z,20.20
2018-09-15T14:16:58.788Z,20.20
2018-09-15T14:19:26.405Z,20.30
2018-09-15T14:21:54.101Z,20.40
2018-09-15T14:24:21.837Z,20.60
2018-09-15T14:29:17.075Z,21.40
2018-09-15T14:31:44.737Z,21.70
2018-09-15T14:34:12.452Z,21.80
2018-09-15T14:41:36.323Z,21.40
2018-09-15T14:44:04.243Z,21.00
2018-09-15T14:46:31.983Z,21.00
2018-09-15T14:48:59.599Z,21.00
2018-09-15T14:51:27.260Z,20.80
2018-09-15T14:56:22.553Z,20.50
2018-09-15T14:58:50.172Z,20.50
2018-09-15T15:01:17.807Z,20.50
2018-09-15T15:03:45.692Z,20.60
2018-09-15T15:06:13.579Z,20.60
2018-09-15T15:08:41.246Z,20.70
2018-09-15T15:11:08.886Z,20.70
2018-09-15T15:13:36.518Z,20.60
2018-09-15T15:18:33.865Z,20.80
2018-09-15T15:23:29.155Z,20.60
2018-09-15T15:25:56.819Z,20.50
2018-09-15T15:28:24.704Z,20.50
2018-09-15T15:33:19.984Z,20.50
2018-09-15T15:35:47.662Z,20.20
2018-09-15T15:40:42.913Z,20.10
2018-09-15T15:43:10.583Z,20.10
2018-09-15T15:45:38.236Z,20.20
2018-09-15T15:48:05.951Z,20.20
2018-09-15T15:50:33.649Z,20.20
2018-09-15T15:53:01.272Z,20.30
2018-09-15T15:55:29.137Z,20.30
2018-09-15T16:00:24.352Z,19.90
2018-09-15T16:02:51.975Z,20.40
2018-09-15T16:07:47.183Z,21.10
2018-09-15T16:10:14.916Z,21.40
2018-09-15T16:12:42.592Z,21.80
2018-09-15T16:15:10.235Z,21.70
2018-09-15T16:17:37.869Z,21.60
2018-09-15T16:20:05.532Z,21.40
2018-09-15T16:22:33.285Z,21.10
2018-09-15T16:25:01.125Z,21.00
2018-09-15T16:27:28.749Z,20.90
2018-09-15T16:29:56.415Z,20.70
2018-09-15T16:32:24.178Z,20.40
2018-09-15T16:34:51.825Z,20.40
2018-09-15T16:37:19.513Z,20.30
2018-09-15T16:39:47.525Z,20.30
2018-09-15T16:42:15.244Z,20.20
2018-09-15T16:47:10.511Z,20.00
2018-09-15T16:49:38.156Z,19.90
2018-09-15T16:52:06.176Z,19.80
2018-09-15T16:54:33.837Z,19.70
2018-09-15T16:57:01.606Z,19.70
2018-09-15T16:59:29.256Z,19.70
2018-09-15T17:01:56.974Z,19.60
2018-09-15T17:04:24.611Z,19.50
2018-09-15T17:11:48.761Z,19.30
2018-09-15T17:14:16.436Z,19.20
2018-09-15T17:16:44.174Z,19.30
2018-09-15T17:21:39.564Z,19.10
2018-09-15T17:24:07.525Z,19.00
2018-09-15T17:26:35.312Z,18.90
2018-09-15T17:29:03.002Z,18.90
2018-09-15T17:31:30.700Z,18.80
2018-09-15T17:33:58.356Z,18.80
2018-09-15T17:36:26.073Z,18.60
2018-09-15T17:41:21.420Z,18.50
2018-09-15T17:48:45.148Z,18.30
2018-09-15T17:51:13.725Z,18.20
2018-09-15T17:53:41.419Z,18.10
2018-09-15T17:56:09.132Z,18.00
2018-09-15T17:58:36.810Z,17.90
2018-09-15T18:01:04.469Z,17.80
2018-09-15T18:03:32.209Z,17.80
2018-09-15T18:05:59.992Z,17.70
2018-09-15T18:08:27.732Z,17.60
2018-09-15T18:10:55.323Z,17.60
2018-09-15T18:13:24.978Z,17.50
2018-09-15T18:15:52.792Z,17.50
2018-09-15T18:18:20.423Z,17.30
2018-09-15T18:20:48.087Z,17.20
2018-09-15T18:23:15.902Z,17.00
2018-09-15T18:28:11.338Z,16.70
2018-09-15T18:30:39.111Z,16.50
2018-09-15T18:33:06.728Z,16.40
2018-09-15T18:35:34.541Z,16.40
2018-09-15T18:38:02.285Z,16.40
2018-09-15T18:40:30.037Z,16.20
2018-09-15T18:42:58.356Z,16.20
2018-09-15T18:45:26.118Z,16.00
2018-09-15T18:47:54.280Z,15.90
2018-09-15T18:50:21.924Z,16.10
2018-09-15T18:52:50.068Z,16.00
2018-09-15T18:57:46.864Z,15.90
2018-09-15T19:00:14.932Z,15.80
2018-09-15T19:02:42.648Z,15.70
2018-09-15T19:07:38.291Z,15.60
2018-09-15T19:10:06.068Z,15.40
2018-09-15T19:12:33.751Z,15.30
2018-09-15T19:17:29.141Z,15.30
2018-09-15T19:19:56.841Z,15.30
2018-09-15T19:22:24.651Z,15.10
2018-09-15T19:27:19.997Z,15.00
2018-09-15T19:29:47.800Z,15.10
2018-09-15T19:32:15.469Z,15.20
2018-09-15T19:34:43.108Z,15.30
2018-09-15T19:37:10.998Z,15.30
2018-09-15T19:39:38.632Z,15.30
2018-09-15T19:42:06.895Z,15.20
2018-09-15T19:44:34.596Z,15.20
2018-09-15T19:47:02.512Z,15.00
2018-09-15T19:49:30.257Z,14.90
2018-09-15T19:51:57.974Z,14.80
2018-09-15T19:54:25.710Z,15.30
2018-09-15T19:56:53.365Z,13.80
2018-09-15T19:59:21.164Z,14.70
2018-09-15T20:01:48.862Z,14.60
2018-09-15T20:04:16.516Z,14.60
2018-09-15T20:06:44.144Z,14.60
2018-09-15T20:09:11.964Z,14.70
2018-09-15T20:11:39.651Z,14.70
2018-09-15T20:14:08.008Z,14.80
2018-09-15T20:16:34.680Z,14.80
2018-09-15T20:19:01.255Z,14.90
2018-09-15T20:21:27.789Z,14.90
2018-09-15T20:23:55.406Z,14.70
2018-09-15T20:26:23.085Z,14.60
2018-09-15T20:28:50.729Z,14.50
2018-09-15T20:31:18.376Z,14.60
2018-09-15T20:33:46.090Z,14.60
2018-09-15T20:36:13.982Z,14.60
2018-09-15T20:38:41.653Z,14.50
2018-09-15T20:41:11.123Z,14.50
2018-09-15T20:43:38.808Z,14.40
2018-09-15T20:46:06.513Z,14.40
2018-09-15T20:48:34.228Z,14.40
2018-09-15T20:51:01.973Z,14.40
2018-09-15T20:53:29.731Z,14.30
2018-09-15T20:55:57.449Z,14.30
2018-09-15T20:58:26.204Z,14.30
2018-09-15T21:00:54.167Z,14.20
2018-09-15T21:03:21.909Z,14.10
2018-09-15T21:05:49.623Z,14.00
2018-09-15T21:08:17.374Z,14.00
2018-09-15T21:10:45.039Z,14.00
2018-09-15T21:13:12.668Z,14.00
2018-09-15T21:15:40.373Z,14.00
2018-09-15T21:18:08.120Z,14.00
2018-09-15T21:20:35.877Z,13.90
2018-09-15T21:23:05.611Z,13.80
2018-09-15T21:25:33.368Z,13.90
2018-09-15T21:28:01.104Z,13.90
2018-09-15T21:30:28.860Z,13.90
2018-09-15T21:32:56.581Z,12.60
2018-09-15T21:35:24.221Z,13.70
2018-09-15T21:40:19.457Z,13.50
2018-09-15T21:42:47.124Z,13.50
2018-09-15T21:45:14.749Z,13.50
2018-09-15T21:47:42.454Z,13.40
2018-09-15T21:50:10.153Z,13.40
2018-09-15T21:52:37.889Z,13.40
2018-09-15T21:55:06.122Z,13.30
2018-09-15T22:00:01.468Z,13.30
2018-09-15T22:02:31.668Z,13.30
2018-09-15T22:05:00.982Z,13.30
2018-09-15T22:07:28.677Z,13.40
2018-09-15T22:09:56.324Z,13.30
2018-09-15T22:12:23.946Z,13.20
2018-09-15T22:14:51.561Z,13.20
2018-09-15T22:17:19.284Z,13.20
2018-09-15T22:19:47.038Z,13.10
2018-09-15T22:22:14.771Z,13.10
2018-09-15T22:24:42.343Z,12.40
2018-09-15T22:27:10.127Z,13.10
2018-09-15T22:29:37.804Z,13.00
2018-09-15T22:32:05.947Z,13.00
2018-09-15T22:34:33.594Z,13.00
2018-09-15T22:39:28.887Z,12.90
2018-09-15T22:41:56.630Z,12.90
2018-09-15T22:44:24.619Z,12.90
2018-09-15T22:49:19.834Z,12.90
2018-09-15T22:51:47.524Z,13.00
2018-09-15T22:54:15.246Z,12.90
2018-09-15T22:56:42.824Z,12.90
2018-09-15T22:59:10.452Z,12.80
2018-09-15T23:01:38.096Z,12.80
2018-09-15T23:04:08.063Z,12.80
2018-09-15T23:06:35.771Z,12.70
2018-09-15T23:09:04.593Z,12.70
2018-09-15T23:11:32.271Z,12.60
2018-09-15T23:13:59.912Z,12.60
2018-09-15T23:16:27.561Z,12.60
2018-09-15T23:21:22.844Z,12.50
2018-09-15T23:23:50.585Z,12.60
2018-09-15T23:26:18.244Z,12.50
2018-09-15T23:28:45.891Z,12.60
2018-09-15T23:31:15.338Z,12.60
2018-09-15T23:33:42.939Z,12.60
2018-09-15T23:36:10.626Z,12.60
2018-09-15T23:38:38.273Z,12.60
2018-09-15T23:41:06.009Z,12.60
2018-09-15T23:43:33.633Z,12.50
2018-09-15T23:46:01.273Z,12.50
2018-09-15T23:48:28.951Z,12.40
2018-09-15T23:50:56.616Z,12.40
2018-09-15T23:53:24.240Z,12.40
2018-09-15T23:55:51.984Z,12.40
2018-09-15T23:58:19.589Z,12.40
